EST,Max TemperatureF,Mean TemperatureF,Min TemperatureF,Max Dew PointF,MeanDew PointF,Min DewpointF,Max Humidity, Mean Humidity, Min Humidity, Max Sea Level PressureIn, Mean Sea Level PressureIn, Min Sea Level PressureIn, Max VisibilityMiles, Mean VisibilityMiles, Min VisibilityMiles, Max Wind SpeedMPH, Mean Wind SpeedMPH, Max Gust SpeedMPH,PrecipitationIn, CloudCover, Events, WindDirDegrees
2013-1-1,28,26,23,18,14,11,68,62,55,30.19,30.14,30.06,10,10,6,14,5,17,T,8,Snow,334
2013-1-2,29,25,21,21,16,10,75,68,60,30.19,30.15,30.11,10,10,10,16,8,20,0.00,7,,234
2013-1-3,32,27,21,25,21,10,81,72,62,30.20,30.12,30.04,10,8,3,17,10,24,T,8,Snow,256
2013-1-4,36,32,28,25,23,20,75,67,59,30.20,30.13,30.06,10,10,10,29,19,36,0.00,5,,255
2013-1-5,38,31,24,32,27,21,96,80,64,30.23,30.12,29.95,10,7,2,22,9,29,0.17,5,Rain-Snow,196
2013-1-6,38,35,32,34,30,25,89,77,64,30.30,30.01,29.85,10,7,0,24,13,30,0.13,8,Fog-Rain-Snow,293
2013-1-7,39,34,29,27,23,18,85,65,44,30.33,30.25,30.13,10,10,6,23,10,33,0.00,4,,196
2013-1-8,40,34,27,28,26,23,85,72,59,30.21,30.15,30.10,10,8,5,17,10,24,0.00,0,,170
2013-1-9,45,40,35,33,30,26,76,63,49,30.44,30.20,30.00,10,10,10,33,17,43,T,1,,252
2013-1-10,47,37,27,36,28,24,92,69,45,30.54,30.36,30.03,10,10,7,21,6,25,0.18,2,Rain,118
2013-1-11,54,47,39,51,44,36,93,87,80,30.01,29.80,29.72,10,6,2,25,14,33,0.55,7,Rain,173
2013-1-12,56,47,38,46,41,33,83,72,60,29.97,29.84,29.70,10,10,10,26,15,35,0.02,2,Rain,231
2013-1-13,38,32,26,34,29,18,92,80,68,30.15,29.95,29.86,10,8,2,18,6,24,0.15,8,Rain-Snow,311
2013-1-14,27,24,21,17,15,14,77,70,62,30.45,30.39,30.24,10,9,2,16,8,25,T,5,Snow,261
2013-1-15,33,28,22,19,17,15,84,59,33,30.43,30.34,30.16,10,10,10,10,5,15,0.00,5,,172
2013-1-16,38,30,22,28,22,15,81,66,51,30.11,29.95,29.82,10,10,8,32,12,43,T,4,,231
2013-1-17,38,32,25,27,17,10,64,57,50,30.37,30.23,29.99,10,10,10,21,10,29,T,7,,313
2013-1-18,42,33,24,29,19,11,68,58,48,30.43,30.22,29.90,10,9,2,35,12,49,T,5,Snow,204
2013-1-19,47,43,39,36,31,22,70,62,53,29.90,29.79,29.64,10,10,10,37,23,49,0.00,4,,226
2013-1-20,39,29,18,16,10,6,80,64,48,30.24,30.13,29.77,10,4,1,31,17,51,T,8,Snow,298
2013-1-21,20,14,8,11,4,-4,74,65,56,30.21,30.08,30.02,9,2,0,23,12,32,0.00,8,Snow,296
2013-1-22,13,10,7,7,1,-6,76,67,57,30.33,30.24,30.15,10,2,0,17,10,24,0.01,8,Snow,298
2013-1-23,22,14,6,16,9,1,84,76,67,30.32,30.16,30.04,9,2,0,20,8,29,0.08,8,Snow,265
2013-1-24,18,13,7,7,3,1,80,65,49,30.66,30.53,30.27,10,10,6,9,4,17,T,1,Snow,66
2013-1-25,28,22,15,21,15,3,81,67,53,30.47,30.09,29.96,10,4,0,16,8,20,0.07,8,Snow,164
2013-1-26,30,26,21,20,18,12,81,66,50,30.45,30.24,30.06,10,6,1,13,2,20,0.03,8,Snow,304
2013-1-27,35,26,16,30,21,14,84,72,59,30.45,30.26,30.02,10,7,1,22,9,26,0.08,7,Rain-Snow,138
2013-1-28,46,41,35,43,36,30,92,84,76,30.02,29.91,29.81,10,5,0,26,11,33,0.12,8,Fog-Rain,223
2013-1-29,61,49,36,56,47,30,93,87,80,29.95,29.64,29.40,10,4,0,26,11,35,1.11,8,Fog-Rain-Thunderstorm,171
2013-1-30,50,39,27,48,34,18,93,84,75,29.43,29.30,29.14,10,4,0,26,9,35,0.42,8,Fog-Rain-Snow,289
2013-1-31,27,23,18,19,13,9,80,71,62,29.97,29.73,29.43,10,2,0,24,16,35,0.04,8,Snow,282